Terminal Aerodrome Forecast
Issued by NWS Newport/Morehead City, NC

Home | Current Version | Previous Version | Text Only | Print | Product List | Glossary On
Versions: 1 2 3 4 5 6 7 8 9 10 11 12 13 14 15 16 17 18 19 20
000
FTUS42 KMHX 180500
TAFEWN
TAF
KEWN 180533Z 1806/1906 03008KT P6SM BKN010
     FM180730 02010KT P6SM OVC007
     FM181500 04010KT P6SM OVC030
     FM181800 06008KT P6SM OVC035
     FM190000 08010KT P6SM VCSH OVC040=

USA.gov is the U.S. government's official web portal to all federal, state and local government web resources and services.